sensor_id;sensor_type;location;lat;lon;timestamp;temperature;humidity
22089;DHT22;11211;52.728;9.230;2022-09-30T00:00:06;16.50;99.30
22089;DHT22;11211;52.728;9.230;2022-09-30T00:02:33;16.50;99.40
22089;DHT22;11211;52.728;9.230;2022-09-30T00:05:00;16.50;99.30
22089;DHT22;11211;52.728;9.230;2022-09-30T00:07:27;16.50;99.30
22089;DHT22;11211;52.728;9.230;2022-09-30T00:09:54;16.60;99.30
22089;DHT22;11211;52.728;9.230;2022-09-30T00:12:21;16.50;99.30
22089;DHT22;11211;52.728;9.230;2022-09-30T00:14:49;16.50;99.30
22089;DHT22;11211;52.728;9.230;2022-09-30T00:17:17;16.50;99.30
22089;DHT22;11211;52.728;9.230;2022-09-30T00:19:44;16.60;99.30
22089;DHT22;11211;52.728;9.230;2022-09-30T00:22:11;16.50;99.30
22089;DHT22;11211;52.728;9.230;2022-09-30T00:24:38;16.50;99.60
22089;DHT22;11211;52.728;9.230;2022-09-30T00:27:05;16.50;99.20
22089;DHT22;11211;52.728;9.230;2022-09-30T00:29:32;16.50;99.20
22089;DHT22;11211;52.728;9.230;2022-09-30T00:31:59;16.50;99.20
22089;DHT22;11211;52.728;9.230;2022-09-30T00:34:27;16.50;99.20
22089;DHT22;11211;52.728;9.230;2022-09-30T00:36:54;16.50;99.20
22089;DHT22;11211;52.728;9.230;2022-09-30T00:39:22;16.50;99.20
22089;DHT22;11211;52.728;9.230;2022-09-30T00:41:51;16.50;99.20
22089;DHT22;11211;52.728;9.230;2022-09-30T00:44:45;16.50;99.20
22089;DHT22;11211;52.728;9.230;2022-09-30T00:50:32;16.50;99.20
22089;DHT22;11211;52.728;9.230;2022-09-30T00:53:06;16.50;99.20
22089;DHT22;11211;52.728;9.230;2022-09-30T00:55:45;16.50;99.10
22089;DHT22;11211;52.728;9.230;2022-09-30T00:58:17;16.50;99.10
22089;DHT22;11211;52.728;9.230;2022-09-30T01:00:45;16.50;99.10
22089;DHT22;11211;52.728;9.230;2022-09-30T01:03:12;16.50;99.10
22089;DHT22;11211;52.728;9.230;2022-09-30T01:05:41;16.50;99.10
22089;DHT22;11211;52.728;9.230;2022-09-30T01:08:09;16.50;99.20
22089;DHT22;11211;52.728;9.230;2022-09-30T01:10:37;16.50;99.20
22089;DHT22;11211;52.728;9.230;2022-09-30T01:13:04;16.50;99.20
22089;DHT22;11211;52.728;9.230;2022-09-30T01:15:55;16.50;99.10
22089;DHT22;11211;52.728;9.230;2022-09-30T01:18:30;16.50;99.10
22089;DHT22;11211;52.728;9.230;2022-09-30T01:21:22;16.50;99.50
22089;DHT22;11211;52.728;9.230;2022-09-30T01:24:27;16.50;99.20
22089;DHT22;11211;52.728;9.230;2022-09-30T01:27:19;16.50;99.20
22089;DHT22;11211;52.728;9.230;2022-09-30T01:30:11;16.50;99.10
22089;DHT22;11211;52.728;9.230;2022-09-30T01:35:54;16.50;99.10
22089;DHT22;11211;52.728;9.230;2022-09-30T01:38:26;16.60;99.20
22089;DHT22;11211;52.728;9.230;2022-09-30T01:41:00;16.50;99.10
22089;DHT22;11211;52.728;9.230;2022-09-30T01:43:39;16.50;99.10
22089;DHT22;11211;52.728;9.230;2022-09-30T01:46:16;16.50;99.10
22089;DHT22;11211;52.728;9.230;2022-09-30T01:48:52;16.50;99.10
22089;DHT22;11211;52.728;9.230;2022-09-30T01:51:29;16.50;99.10
22089;DHT22;11211;52.728;9.230;2022-09-30T01:54:02;16.50;99.10
22089;DHT22;11211;52.728;9.230;2022-09-30T01:56:36;16.50;99.10
22089;DHT22;11211;52.728;9.230;2022-09-30T01:59:05;16.60;99.10
22089;DHT22;11211;52.728;9.230;2022-09-30T02:01:37;16.50;99.10
22089;DHT22;11211;52.728;9.230;2022-09-30T02:04:08;16.50;99.00
22089;DHT22;11211;52.728;9.230;2022-09-30T02:06:41;16.60;99.10
22089;DHT22;11211;52.728;9.230;2022-09-30T02:09:12;16.50;99.10
22089;DHT22;11211;52.728;9.230;2022-09-30T02:11:40;16.50;99.10
22089;DHT22;11211;52.728;9.230;2022-09-30T02:14:11;16.50;99.10
22089;DHT22;11211;52.728;9.230;2022-09-30T02:16:45;16.50;99.10
22089;DHT22;11211;52.728;9.230;2022-09-30T02:19:18;16.50;99.10
22089;DHT22;11211;52.728;9.230;2022-09-30T02:21:54;16.50;99.00
22089;DHT22;11211;52.728;9.230;2022-09-30T02:24:24;16.50;99.10
22089;DHT22;11211;52.728;9.230;2022-09-30T02:26:54;16.50;99.10
22089;DHT22;11211;52.728;9.230;2022-09-30T02:29:24;16.50;99.00
22089;DHT22;11211;52.728;9.230;2022-09-30T02:31:58;16.50;99.00
22089;DHT22;11211;52.728;9.230;2022-09-30T02:34:30;16.60;99.10
22089;DHT22;11211;52.728;9.230;2022-09-30T02:37:04;16.50;99.10
22089;DHT22;11211;52.728;9.230;2022-09-30T02:39:38;16.50;99.10
22089;DHT22;11211;52.728;9.230;2022-09-30T02:42:11;16.50;99.10
22089;DHT22;11211;52.728;9.230;2022-09-30T02:44:39;16.50;99.10
22089;DHT22;11211;52.728;9.230;2022-09-30T02:47:11;16.50;99.10
22089;DHT22;11211;52.728;9.230;2022-09-30T02:49:45;16.50;99.10
22089;DHT22;11211;52.728;9.230;2022-09-30T02:52:23;16.50;99.40
22089;DHT22;11211;52.728;9.230;2022-09-30T02:55:01;16.50;99.10
22089;DHT22;11211;52.728;9.230;2022-09-30T02:57:37;16.50;99.40
22089;DHT22;11211;52.728;9.230;2022-09-30T03:00:06;16.50;99.00
22089;DHT22;11211;52.728;9.230;2022-09-30T03:02:34;16.50;99.00
22089;DHT22;11211;52.728;9.230;2022-09-30T03:05:03;16.50;99.00
22089;DHT22;11211;52.728;9.230;2022-09-30T03:07:30;16.50;99.00
22089;DHT22;11211;52.728;9.230;2022-09-30T03:09:57;16.50;99.00
22089;DHT22;11211;52.728;9.230;2022-09-30T03:12:33;16.50;99.10
22089;DHT22;11211;52.728;9.230;2022-09-30T03:15:19;16.50;99.00
22089;DHT22;11211;52.728;9.230;2022-09-30T03:18:01;16.50;99.00
22089;DHT22;11211;52.728;9.230;2022-09-30T03:20:44;16.50;99.00
22089;DHT22;11211;52.728;9.230;2022-09-30T03:23:23;16.50;99.00
22089;DHT22;11211;52.728;9.230;2022-09-30T03:25:57;16.50;99.00
22089;DHT22;11211;52.728;9.230;2022-09-30T03:28:30;16.50;99.00
22089;DHT22;11211;52.728;9.230;2022-09-30T03:31:04;16.50;99.00
22089;DHT22;11211;52.728;9.230;2022-09-30T03:33:43;16.50;99.00
22089;DHT22;11211;52.728;9.230;2022-09-30T03:36:23;16.50;99.00
22089;DHT22;11211;52.728;9.230;2022-09-30T03:38:57;16.50;99.00
22089;DHT22;11211;52.728;9.230;2022-09-30T03:41:30;16.50;99.00
22089;DHT22;11211;52.728;9.230;2022-09-30T03:44:03;16.50;99.00
22089;DHT22;11211;52.728;9.230;2022-09-30T03:46:36;16.50;99.00
22089;DHT22;11211;52.728;9.230;2022-09-30T03:49:09;16.50;99.00
22089;DHT22;11211;52.728;9.230;2022-09-30T03:51:40;16.50;99.00
22089;DHT22;11211;52.728;9.230;2022-09-30T03:54:08;16.50;99.00
22089;DHT22;11211;52.728;9.230;2022-09-30T03:56:36;16.50;99.00
22089;DHT22;11211;52.728;9.230;2022-09-30T03:59:09;16.50;99.00
22089;DHT22;11211;52.728;9.230;2022-09-30T04:01:36;16.50;98.90
22089;DHT22;11211;52.728;9.230;2022-09-30T04:04:03;16.50;99.00
22089;DHT22;11211;52.728;9.230;2022-09-30T04:06:30;16.50;99.00
22089;DHT22;11211;52.728;9.230;2022-09-30T04:08:58;16.50;98.90
22089;DHT22;11211;52.728;9.230;2022-09-30T04:11:25;16.50;98.90
22089;DHT22;11211;52.728;9.230;2022-09-30T04:13:52;16.50;98.90
22089;DHT22;11211;52.728;9.230;2022-09-30T04:16:19;16.50;98.90
22089;DHT22;11211;52.728;9.230;2022-09-30T04:18:46;16.50;98.90
22089;DHT22;11211;52.728;9.230;2022-09-30T04:21:14;16.50;98.90
22089;DHT22;11211;52.728;9.230;2022-09-30T04:23:42;16.50;98.90
22089;DHT22;11211;52.728;9.230;2022-09-30T04:26:12;16.50;98.90
22089;DHT22;11211;52.728;9.230;2022-09-30T04:28:39;16.50;99.20
22089;DHT22;11211;52.728;9.230;2022-09-30T04:31:09;16.50;98.90
22089;DHT22;11211;52.728;9.230;2022-09-30T04:33:36;16.50;98.80
22089;DHT22;11211;52.728;9.230;2022-09-30T04:36:04;16.50;98.80
22089;DHT22;11211;52.728;9.230;2022-09-30T04:38:32;16.50;98.80
22089;DHT22;11211;52.728;9.230;2022-09-30T04:41:01;16.50;98.90
22089;DHT22;11211;52.728;9.230;2022-09-30T04:43:31;16.50;98.80
22089;DHT22;11211;52.728;9.230;2022-09-30T04:45:59;16.50;98.80
22089;DHT22;11211;52.728;9.230;2022-09-30T04:48:26;16.50;98.80
22089;DHT22;11211;52.728;9.230;2022-09-30T04:50:57;16.50;98.80
22089;DHT22;11211;52.728;9.230;2022-09-30T04:53:25;16.50;98.80
22089;DHT22;11211;52.728;9.230;2022-09-30T04:55:57;16.50;98.90
22089;DHT22;11211;52.728;9.230;2022-09-30T04:58:24;16.50;98.80
22089;DHT22;11211;52.728;9.230;2022-09-30T05:00:59;16.50;98.80
22089;DHT22;11211;52.728;9.230;2022-09-30T05:03:25;16.50;98.80
22089;DHT22;11211;52.728;9.230;2022-09-30T05:05:52;16.50;98.80
22089;DHT22;11211;52.728;9.230;2022-09-30T05:08:20;16.50;98.80
22089;DHT22;11211;52.728;9.230;2022-09-30T05:10:52;16.50;98.80
22089;DHT22;11211;52.728;9.230;2022-09-30T05:13:22;16.50;98.80
22089;DHT22;11211;52.728;9.230;2022-09-30T05:15:49;16.50;98.80
22089;DHT22;11211;52.728;9.230;2022-09-30T05:18:18;16.50;98.80
22089;DHT22;11211;52.728;9.230;2022-09-30T05:20:48;16.50;98.80
22089;DHT22;11211;52.728;9.230;2022-09-30T05:23:16;16.50;98.80
22089;DHT22;11211;52.728;9.230;2022-09-30T05:25:44;16.50;98.80
22089;DHT22;11211;52.728;9.230;2022-09-30T05:28:11;16.50;98.80
22089;DHT22;11211;52.728;9.230;2022-09-30T05:30:39;16.50;98.80
22089;DHT22;11211;52.728;9.230;2022-09-30T05:33:08;16.50;98.80
22089;DHT22;11211;52.728;9.230;2022-09-30T05:35:38;16.50;98.70
22089;DHT22;11211;52.728;9.230;2022-09-30T05:38:06;16.50;98.80
22089;DHT22;11211;52.728;9.230;2022-09-30T05:40:36;16.50;98.80
22089;DHT22;11211;52.728;9.230;2022-09-30T05:43:03;16.50;98.70
22089;DHT22;11211;52.728;9.230;2022-09-30T05:45:30;16.50;98.70
22089;DHT22;11211;52.728;9.230;2022-09-30T05:47:57;16.50;98.70
22089;DHT22;11211;52.728;9.230;2022-09-30T05:50:24;16.40;98.70
22089;DHT22;11211;52.728;9.230;2022-09-30T05:52:53;16.50;98.70
22089;DHT22;11211;52.728;9.230;2022-09-30T05:55:20;16.50;98.70
22089;DHT22;11211;52.728;9.230;2022-09-30T05:57:48;16.50;98.70
22089;DHT22;11211;52.728;9.230;2022-09-30T06:00:15;16.50;98.70
22089;DHT22;11211;52.728;9.230;2022-09-30T06:02:42;16.50;98.70
22089;DHT22;11211;52.728;9.230;2022-09-30T06:05:11;16.50;98.70
22089;DHT22;11211;52.728;9.230;2022-09-30T06:07:38;16.50;98.70
22089;DHT22;11211;52.728;9.230;2022-09-30T06:10:08;16.50;98.70
22089;DHT22;11211;52.728;9.230;2022-09-30T06:12:37;16.50;98.70
22089;DHT22;11211;52.728;9.230;2022-09-30T06:15:05;16.50;98.70
22089;DHT22;11211;52.728;9.230;2022-09-30T06:17:32;16.40;98.70
22089;DHT22;11211;52.728;9.230;2022-09-30T06:19:59;16.40;98.70
22089;DHT22;11211;52.728;9.230;2022-09-30T06:22:27;16.40;98.70
22089;DHT22;11211;52.728;9.230;2022-09-30T06:24:54;16.40;98.70
22089;DHT22;11211;52.728;9.230;2022-09-30T06:27:22;16.40;98.70
22089;DHT22;11211;52.728;9.230;2022-09-30T06:29:49;16.40;98.70
22089;DHT22;11211;52.728;9.230;2022-09-30T06:32:16;16.40;98.70
22089;DHT22;11211;52.728;9.230;2022-09-30T06:34:44;16.40;98.70
22089;DHT22;11211;52.728;9.230;2022-09-30T06:37:11;16.40;98.70
22089;DHT22;11211;52.728;9.230;2022-09-30T06:39:38;16.40;98.70
22089;DHT22;11211;52.728;9.230;2022-09-30T06:42:06;16.40;98.70
22089;DHT22;11211;52.728;9.230;2022-09-30T06:44:34;16.50;98.80
22089;DHT22;11211;52.728;9.230;2022-09-30T06:47:02;16.40;98.70
22089;DHT22;11211;52.728;9.230;2022-09-30T06:49:28;16.40;98.70
22089;DHT22;11211;52.728;9.230;2022-09-30T06:51:55;16.40;98.70
22089;DHT22;11211;52.728;9.230;2022-09-30T06:54:25;16.40;98.70
22089;DHT22;11211;52.728;9.230;2022-09-30T06:56:52;16.40;98.80
22089;DHT22;11211;52.728;9.230;2022-09-30T06:59:20;16.40;98.80
22089;DHT22;11211;52.728;9.230;2022-09-30T07:01:48;16.50;98.80
22089;DHT22;11211;52.728;9.230;2022-09-30T07:04:15;16.50;98.80
22089;DHT22;11211;52.728;9.230;2022-09-30T07:06:42;16.50;98.90
22089;DHT22;11211;52.728;9.230;2022-09-30T07:09:10;16.40;98.80
22089;DHT22;11211;52.728;9.230;2022-09-30T07:11:37;16.50;98.90
22089;DHT22;11211;52.728;9.230;2022-09-30T07:14:05;16.50;98.90
22089;DHT22;11211;52.728;9.230;2022-09-30T07:16:32;16.50;98.90
22089;DHT22;11211;52.728;9.230;2022-09-30T07:19:01;16.50;98.90
22089;DHT22;11211;52.728;9.230;2022-09-30T07:21:28;16.50;99.00
22089;DHT22;11211;52.728;9.230;2022-09-30T07:23:56;16.40;98.90
22089;DHT22;11211;52.728;9.230;2022-09-30T07:26:25;16.40;98.90
22089;DHT22;11211;52.728;9.230;2022-09-30T07:28:53;16.50;99.00
22089;DHT22;11211;52.728;9.230;2022-09-30T07:31:22;16.50;99.00
22089;DHT22;11211;52.728;9.230;2022-09-30T07:33:50;16.50;99.00
22089;DHT22;11211;52.728;9.230;2022-09-30T07:36:20;16.50;99.00
22089;DHT22;11211;52.728;9.230;2022-09-30T07:38:52;16.50;99.00
22089;DHT22;11211;52.728;9.230;2022-09-30T07:41:21;16.50;99.00
22089;DHT22;11211;52.728;9.230;2022-09-30T07:43:52;16.50;99.10
22089;DHT22;11211;52.728;9.230;2022-09-30T07:46:22;16.50;99.10
22089;DHT22;11211;52.728;9.230;2022-09-30T07:48:51;16.50;99.00
22089;DHT22;11211;52.728;9.230;2022-09-30T07:51:22;16.50;99.10
22089;DHT22;11211;52.728;9.230;2022-09-30T07:53:52;16.40;99.00
22089;DHT22;11211;52.728;9.230;2022-09-30T07:56:20;16.50;99.10
22089;DHT22;11211;52.728;9.230;2022-09-30T07:58:48;16.40;99.00
22089;DHT22;11211;52.728;9.230;2022-09-30T08:01:15;16.50;99.10
22089;DHT22;11211;52.728;9.230;2022-09-30T08:03:42;16.50;99.20
22089;DHT22;11211;52.728;9.230;2022-09-30T08:06:12;16.50;99.20
22089;DHT22;11211;52.728;9.230;2022-09-30T08:08:40;16.50;99.20
22089;DHT22;11211;52.728;9.230;2022-09-30T08:11:08;16.50;99.20
22089;DHT22;11211;52.728;9.230;2022-09-30T08:13:39;16.50;99.50
22089;DHT22;11211;52.728;9.230;2022-09-30T08:16:07;16.50;99.20
22089;DHT22;11211;52.728;9.230;2022-09-30T08:18:34;16.50;99.60
22089;DHT22;11211;52.728;9.230;2022-09-30T08:21:02;16.50;99.20
22089;DHT22;11211;52.728;9.230;2022-09-30T08:23:30;16.50;99.30
22089;DHT22;11211;52.728;9.230;2022-09-30T08:26:02;16.50;99.30
22089;DHT22;11211;52.728;9.230;2022-09-30T08:28:29;16.50;99.30
22089;DHT22;11211;52.728;9.230;2022-09-30T08:31:03;16.50;99.30
22089;DHT22;11211;52.728;9.230;2022-09-30T08:33:30;16.50;99.30
22089;DHT22;11211;52.728;9.230;2022-09-30T08:36:01;16.50;99.30
22089;DHT22;11211;52.728;9.230;2022-09-30T08:38:28;16.50;99.30
22089;DHT22;11211;52.728;9.230;2022-09-30T08:41:07;16.50;99.40
22089;DHT22;11211;52.728;9.230;2022-09-30T08:43:42;16.50;99.30
22089;DHT22;11211;52.728;9.230;2022-09-30T08:46:22;16.50;99.30
22089;DHT22;11211;52.728;9.230;2022-09-30T08:49:01;16.50;99.40
22089;DHT22;11211;52.728;9.230;2022-09-30T08:51:32;16.50;99.40
22089;DHT22;11211;52.728;9.230;2022-09-30T08:54:01;16.50;99.40
22089;DHT22;11211;52.728;9.230;2022-09-30T08:56:32;16.50;99.40
22089;DHT22;11211;52.728;9.230;2022-09-30T08:59:05;16.50;99.50
22089;DHT22;11211;52.728;9.230;2022-09-30T09:01:34;16.50;99.90
22089;DHT22;11211;52.728;9.230;2022-09-30T09:04:04;16.50;99.50
22089;DHT22;11211;52.728;9.230;2022-09-30T09:06:35;16.50;99.90
22089;DHT22;11211;52.728;9.230;2022-09-30T09:09:23;16.50;99.90
22089;DHT22;11211;52.728;9.230;2022-09-30T09:12:04;16.50;99.60
22089;DHT22;11211;52.728;9.230;2022-09-30T09:14:43;16.50;99.60
22089;DHT22;11211;52.728;9.230;2022-09-30T09:17:24;16.50;99.60
22089;DHT22;11211;52.728;9.230;2022-09-30T09:20:00;16.50;99.70
22089;DHT22;11211;52.728;9.230;2022-09-30T09:22:29;16.50;99.70
22089;DHT22;11211;52.728;9.230;2022-09-30T09:24:58;16.50;99.70
22089;DHT22;11211;52.728;9.230;2022-09-30T09:27:33;16.50;99.80
22089;DHT22;11211;52.728;9.230;2022-09-30T09:30:05;16.50;99.80
22089;DHT22;11211;52.728;9.230;2022-09-30T09:32:33;16.50;99.80
22089;DHT22;11211;52.728;9.230;2022-09-30T09:35:08;16.50;99.80
22089;DHT22;11211;52.728;9.230;2022-09-30T09:37:45;16.50;99.80
22089;DHT22;11211;52.728;9.230;2022-09-30T09:40:39;16.50;99.80
22089;DHT22;11211;52.728;9.230;2022-09-30T09:43:18;16.50;99.80
22089;DHT22;11211;52.728;9.230;2022-09-30T09:45:55;16.50;99.80
22089;DHT22;11211;52.728;9.230;2022-09-30T09:48:25;16.50;99.80
22089;DHT22;11211;52.728;9.230;2022-09-30T09:50:59;16.50;99.90
22089;DHT22;11211;52.728;9.230;2022-09-30T09:53:44;16.50;99.90
22089;DHT22;11211;52.728;9.230;2022-09-30T09:56:14;16.50;99.90
22089;DHT22;11211;52.728;9.230;2022-09-30T09:59:04;16.50;99.90
22089;DHT22;11211;52.728;9.230;2022-09-30T10:01:31;16.50;99.90
22089;DHT22;11211;52.728;9.230;2022-09-30T10:04:17;16.50;99.90
22089;DHT22;11211;52.728;9.230;2022-09-30T10:06:51;16.50;99.90
22089;DHT22;11211;52.728;9.230;2022-09-30T10:09:27;16.50;99.90
22089;DHT22;11211;52.728;9.230;2022-09-30T10:12:27;16.50;99.90
22089;DHT22;11211;52.728;9.230;2022-09-30T10:14:59;16.50;99.90
22089;DHT22;11211;52.728;9.230;2022-09-30T10:17:28;16.50;99.90
22089;DHT22;11211;52.728;9.230;2022-09-30T10:20:00;16.50;99.90
22089;DHT22;11211;52.728;9.230;2022-09-30T10:22:31;16.50;99.90
22089;DHT22;11211;52.728;9.230;2022-09-30T10:25:20;16.50;99.90
22089;DHT22;11211;52.728;9.230;2022-09-30T10:27:51;16.50;99.90
22089;DHT22;11211;52.728;9.230;2022-09-30T10:30:32;16.50;99.90
22089;DHT22;11211;52.728;9.230;2022-09-30T10:33:00;16.50;99.90
22089;DHT22;11211;52.728;9.230;2022-09-30T10:35:29;16.50;99.90
22089;DHT22;11211;52.728;9.230;2022-09-30T10:37:57;16.50;99.90
22089;DHT22;11211;52.728;9.230;2022-09-30T10:40:27;16.50;99.90
22089;DHT22;11211;52.728;9.230;2022-09-30T10:42:55;16.50;99.90
22089;DHT22;11211;52.728;9.230;2022-09-30T10:45:23;16.50;99.90
22089;DHT22;11211;52.728;9.230;2022-09-30T10:47:56;16.50;99.90
22089;DHT22;11211;52.728;9.230;2022-09-30T10:50:24;16.50;99.90
22089;DHT22;11211;52.728;9.230;2022-09-30T10:52:55;16.50;99.90
22089;DHT22;11211;52.728;9.230;2022-09-30T10:55:30;16.50;99.90
22089;DHT22;11211;52.728;9.230;2022-09-30T10:58:20;16.50;99.90
22089;DHT22;11211;52.728;9.230;2022-09-30T11:00:52;16.50;99.90
22089;DHT22;11211;52.728;9.230;2022-09-30T11:03:26;16.50;99.90
22089;DHT22;11211;52.728;9.230;2022-09-30T11:05:55;16.50;99.90
22089;DHT22;11211;52.728;9.230;2022-09-30T11:08:28;16.50;99.90
22089;DHT22;11211;52.728;9.230;2022-09-30T11:10:59;16.50;99.90
22089;DHT22;11211;52.728;9.230;2022-09-30T11:13:33;16.50;99.90
22089;DHT22;11211;52.728;9.230;2022-09-30T11:16:05;16.50;99.90
22089;DHT22;11211;52.728;9.230;2022-09-30T11:18:42;16.50;99.90
22089;DHT22;11211;52.728;9.230;2022-09-30T11:21:14;16.50;99.90
22089;DHT22;11211;52.728;9.230;2022-09-30T11:23:46;16.50;99.90
22089;DHT22;11211;52.728;9.230;2022-09-30T11:26:21;16.50;99.90
22089;DHT22;11211;52.728;9.230;2022-09-30T11:29:07;16.50;99.90
22089;DHT22;11211;52.728;9.230;2022-09-30T11:31:44;16.50;99.90
22089;DHT22;11211;52.728;9.230;2022-09-30T11:34:26;16.50;99.90
22089;DHT22;11211;52.728;9.230;2022-09-30T11:37:03;16.50;99.90
22089;DHT22;11211;52.728;9.230;2022-09-30T11:39:54;16.50;99.90
22089;DHT22;11211;52.728;9.230;2022-09-30T11:42:34;16.50;99.90
22089;DHT22;11211;52.728;9.230;2022-09-30T11:45:12;16.50;99.90
22089;DHT22;11211;52.728;9.230;2022-09-30T11:47:55;16.50;99.90
22089;DHT22;11211;52.728;9.230;2022-09-30T11:50:47;16.50;99.90
22089;DHT22;11211;52.728;9.230;2022-09-30T11:53:24;16.50;99.90
22089;DHT22;11211;52.728;9.230;2022-09-30T11:56:11;16.50;99.90
22089;DHT22;11211;52.728;9.230;2022-09-30T11:58:44;16.50;99.90
22089;DHT22;11211;52.728;9.230;2022-09-30T12:01:19;16.50;99.90
22089;DHT22;11211;52.728;9.230;2022-09-30T12:03:54;16.50;99.90
22089;DHT22;11211;52.728;9.230;2022-09-30T12:06:29;16.50;99.90
22089;DHT22;11211;52.728;9.230;2022-09-30T12:09:02;16.50;99.90
22089;DHT22;11211;52.728;9.230;2022-09-30T12:11:36;16.50;99.90
22089;DHT22;11211;52.728;9.230;2022-09-30T12:14:11;16.50;99.90
22089;DHT22;11211;52.728;9.230;2022-09-30T12:16:40;16.50;99.90
22089;DHT22;11211;52.728;9.230;2022-09-30T12:19:13;16.50;99.90
22089;DHT22;11211;52.728;9.230;2022-09-30T12:21:49;16.50;99.90
22089;DHT22;11211;52.728;9.230;2022-09-30T12:24:23;16.50;99.90
22089;DHT22;11211;52.728;9.230;2022-09-30T12:26:51;16.50;99.90
22089;DHT22;11211;52.728;9.230;2022-09-30T12:29:21;16.50;99.90
22089;DHT22;11211;52.728;9.230;2022-09-30T12:38:19;16.50;99.90
22089;DHT22;11211;52.728;9.230;2022-09-30T12:41:07;16.50;99.90
22089;DHT22;11211;52.728;9.230;2022-09-30T12:47:02;16.50;99.90
22089;DHT22;11211;52.728;9.230;2022-09-30T12:49:35;16.50;99.90
22089;DHT22;11211;52.728;9.230;2022-09-30T12:52:06;16.50;99.90
22089;DHT22;11211;52.728;9.230;2022-09-30T12:54:40;16.50;99.90
22089;DHT22;11211;52.728;9.230;2022-09-30T12:57:08;16.50;99.90
22089;DHT22;11211;52.728;9.230;2022-09-30T12:59:38;16.50;99.90
22089;DHT22;11211;52.728;9.230;2022-09-30T13:02:26;16.50;99.90
22089;DHT22;11211;52.728;9.230;2022-09-30T13:08:21;16.50;99.90
22089;DHT22;11211;52.728;9.230;2022-09-30T13:10:56;16.50;99.90
22089;DHT22;11211;52.728;9.230;2022-09-30T13:13:24;16.50;99.90
22089;DHT22;11211;52.728;9.230;2022-09-30T13:15:52;16.50;99.90
22089;DHT22;11211;52.728;9.230;2022-09-30T13:18:57;16.50;99.90
22089;DHT22;11211;52.728;9.230;2022-09-30T13:21:25;16.50;99.90
22089;DHT22;11211;52.728;9.230;2022-09-30T13:23:53;16.50;99.90
22089;DHT22;11211;52.728;9.230;2022-09-30T13:26:44;16.50;99.90
22089;DHT22;11211;52.728;9.230;2022-09-30T13:29:32;16.50;99.90
22089;DHT22;11211;52.728;9.230;2022-09-30T13:32:31;16.50;99.90
22089;DHT22;11211;52.728;9.230;2022-09-30T13:34:59;16.50;99.90
22089;DHT22;11211;52.728;9.230;2022-09-30T13:37:38;16.50;99.90
22089;DHT22;11211;52.728;9.230;2022-09-30T13:40:20;16.50;99.90
22089;DHT22;11211;52.728;9.230;2022-09-30T13:42:52;16.50;99.90
22089;DHT22;11211;52.728;9.230;2022-09-30T13:45:28;16.50;99.90
22089;DHT22;11211;52.728;9.230;2022-09-30T13:48:05;16.50;99.90
22089;DHT22;11211;52.728;9.230;2022-09-30T13:50:43;16.50;99.90
22089;DHT22;11211;52.728;9.230;2022-09-30T13:53:14;16.50;99.90
22089;DHT22;11211;52.728;9.230;2022-09-30T13:55:46;16.50;99.90
22089;DHT22;11211;52.728;9.230;2022-09-30T13:58:34;16.50;99.90
22089;DHT22;11211;52.728;9.230;2022-09-30T14:01:11;16.50;99.90
22089;DHT22;11211;52.728;9.230;2022-09-30T14:04:00;16.50;99.90
22089;DHT22;11211;52.728;9.230;2022-09-30T14:06:36;16.50;99.90
22089;DHT22;11211;52.728;9.230;2022-09-30T14:09:20;16.50;99.90
22089;DHT22;11211;52.728;9.230;2022-09-30T14:12:11;16.50;99.90
22089;DHT22;11211;52.728;9.230;2022-09-30T14:18:06;16.50;99.90
22089;DHT22;11211;52.728;9.230;2022-09-30T14:20:49;16.50;99.90
22089;DHT22;11211;52.728;9.230;2022-09-30T14:23:23;16.50;99.90
22089;DHT22;11211;52.728;9.230;2022-09-30T14:25:58;16.50;99.90
22089;DHT22;11211;52.728;9.230;2022-09-30T14:28:31;16.50;99.90
22089;DHT22;11211;52.728;9.230;2022-09-30T14:31:03;16.50;99.90
22089;DHT22;11211;52.728;9.230;2022-09-30T14:33:40;16.50;99.90
22089;DHT22;11211;52.728;9.230;2022-09-30T14:36:12;16.50;99.90
22089;DHT22;11211;52.728;9.230;2022-09-30T14:38:43;16.50;99.90
22089;DHT22;11211;52.728;9.230;2022-09-30T14:41:18;16.50;99.90
22089;DHT22;11211;52.728;9.230;2022-09-30T14:43:46;16.50;99.90
22089;DHT22;11211;52.728;9.230;2022-09-30T14:46:24;16.50;99.90
22089;DHT22;11211;52.728;9.230;2022-09-30T14:48:53;16.50;99.90
22089;DHT22;11211;52.728;9.230;2022-09-30T14:51:22;16.50;99.90
22089;DHT22;11211;52.728;9.230;2022-09-30T14:53:55;16.50;99.90
22089;DHT22;11211;52.728;9.230;2022-09-30T14:56:26;16.50;99.90
22089;DHT22;11211;52.728;9.230;2022-09-30T14:58:55;16.50;99.90
22089;DHT22;11211;52.728;9.230;2022-09-30T15:01:26;16.50;99.90
22089;DHT22;11211;52.728;9.230;2022-09-30T15:03:59;16.50;99.90
22089;DHT22;11211;52.728;9.230;2022-09-30T15:06:29;16.50;99.90
22089;DHT22;11211;52.728;9.230;2022-09-30T15:09:00;16.50;99.90
22089;DHT22;11211;52.728;9.230;2022-09-30T15:11:28;16.50;99.90
22089;DHT22;11211;52.728;9.230;2022-09-30T15:13:58;16.50;99.90
22089;DHT22;11211;52.728;9.230;2022-09-30T15:16:27;16.50;99.90
22089;DHT22;11211;52.728;9.230;2022-09-30T15:18:55;16.50;99.90
22089;DHT22;11211;52.728;9.230;2022-09-30T15:21:25;16.50;99.90
22089;DHT22;11211;52.728;9.230;2022-09-30T15:23:55;16.50;99.90
22089;DHT22;11211;52.728;9.230;2022-09-30T15:26:24;16.50;99.90
22089;DHT22;11211;52.728;9.230;2022-09-30T15:28:52;16.50;99.90
22089;DHT22;11211;52.728;9.230;2022-09-30T15:31:24;16.50;99.90
22089;DHT22;11211;52.728;9.230;2022-09-30T15:34:10;16.50;99.90
22089;DHT22;11211;52.728;9.230;2022-09-30T15:36:38;16.50;99.90
22089;DHT22;11211;52.728;9.230;2022-09-30T15:39:14;16.50;99.90
22089;DHT22;11211;52.728;9.230;2022-09-30T15:41:42;16.50;99.90
22089;DHT22;11211;52.728;9.230;2022-09-30T15:44:16;16.50;99.90
22089;DHT22;11211;52.728;9.230;2022-09-30T15:47:00;16.50;99.90
22089;DHT22;11211;52.728;9.230;2022-09-30T15:49:44;16.50;99.90
22089;DHT22;11211;52.728;9.230;2022-09-30T15:52:35;16.50;99.90
22089;DHT22;11211;52.728;9.230;2022-09-30T15:58:03;16.50;99.90
22089;DHT22;11211;52.728;9.230;2022-09-30T16:00:35;16.50;99.90
22089;DHT22;11211;52.728;9.230;2022-09-30T16:03:20;16.50;99.90
22089;DHT22;11211;52.728;9.230;2022-09-30T16:05:51;16.50;99.90
22089;DHT22;11211;52.728;9.230;2022-09-30T16:08:20;16.50;99.90
22089;DHT22;11211;52.728;9.230;2022-09-30T16:10:49;16.50;99.90
22089;DHT22;11211;52.728;9.230;2022-09-30T16:13:18;16.50;99.90
22089;DHT22;11211;52.728;9.230;2022-09-30T16:15:46;16.50;99.90
22089;DHT22;11211;52.728;9.230;2022-09-30T16:18:17;16.50;99.90
22089;DHT22;11211;52.728;9.230;2022-09-30T16:20:57;16.50;99.90
22089;DHT22;11211;52.728;9.230;2022-09-30T16:23:29;16.50;99.90
22089;DHT22;11211;52.728;9.230;2022-09-30T16:26:18;16.50;99.90
22089;DHT22;11211;52.728;9.230;2022-09-30T16:28:49;16.50;99.90